sensor_id;sensor_type;location;lat;lon;timestamp;pressure;altitude;pressure_sealevel;temperature;humidity
23446;BME280;11895;48.738;9.320;2022-07-21T00:00:27;99028.06;;;22.43;100.00
23446;BME280;11895;48.738;9.320;2022-07-21T00:02:56;99026.75;;;22.37;100.00
23446;BME280;11895;48.738;9.320;2022-07-21T00:05:24;99017.81;;;22.45;100.00
23446;BME280;11895;48.738;9.320;2022-07-21T00:07:53;99024.34;;;22.44;100.00
23446;BME280;11895;48.738;9.320;2022-07-21T00:10:23;99030.66;;;22.35;100.00
23446;BME280;11895;48.738;9.320;2022-07-21T00:12:53;99055.91;;;22.28;100.00
23446;BME280;11895;48.738;9.320;2022-07-21T00:15:25;99058.19;;;22.23;100.00
23446;BME280;11895;48.738;9.320;2022-07-21T00:17:54;99059.06;;;22.24;100.00
23446;BME280;11895;48.738;9.320;2022-07-21T00:20:23;99044.94;;;22.28;100.00
23446;BME280;11895;48.738;9.320;2022-07-21T00:22:50;99044.94;;;22.28;100.00
23446;BME280;11895;48.738;9.320;2022-07-21T00:25:17;99052.66;;;21.83;100.00
23446;BME280;11895;48.738;9.320;2022-07-21T00:27:44;99066.63;;;22.01;100.00
23446;BME280;11895;48.738;9.320;2022-07-21T00:30:13;99074.34;;;22.17;100.00
23446;BME280;11895;48.738;9.320;2022-07-21T00:32:42;99072.94;;;22.22;100.00
23446;BME280;11895;48.738;9.320;2022-07-21T00:35:11;99078.16;;;22.25;100.00
23446;BME280;11895;48.738;9.320;2022-07-21T00:37:39;99079.88;;;22.26;100.00
23446;BME280;11895;48.738;9.320;2022-07-21T00:40:09;99083.19;;;22.20;100.00
23446;BME280;11895;48.738;9.320;2022-07-21T00:42:38;99073.22;;;22.19;100.00
23446;BME280;11895;48.738;9.320;2022-07-21T00:45:07;99048.84;;;22.26;100.00
23446;BME280;11895;48.738;9.320;2022-07-21T00:47:37;99031.94;;;22.30;100.00
23446;BME280;11895;48.738;9.320;2022-07-21T00:50:09;99038.34;;;22.10;100.00
23446;BME280;11895;48.738;9.320;2022-07-21T00:52:38;99040.56;;;22.16;100.00
23446;BME280;11895;48.738;9.320;2022-07-21T00:55:09;99040.88;;;22.23;100.00
23446;BME280;11895;48.738;9.320;2022-07-21T00:57:39;99042.75;;;22.22;100.00
23446;BME280;11895;48.738;9.320;2022-07-21T01:00:21;99048.44;;;22.10;100.00
23446;BME280;11895;48.738;9.320;2022-07-21T01:02:50;99040.44;;;22.27;100.00
23446;BME280;11895;48.738;9.320;2022-07-21T01:05:18;99028.00;;;22.23;100.00
23446;BME280;11895;48.738;9.320;2022-07-21T01:07:50;99033.38;;;22.25;100.00
23446;BME280;11895;48.738;9.320;2022-07-21T01:10:22;99042.03;;;22.20;100.00
23446;BME280;11895;48.738;9.320;2022-07-21T01:12:51;99058.66;;;21.98;100.00
23446;BME280;11895;48.738;9.320;2022-07-21T01:15:19;99062.13;;;22.00;100.00
23446;BME280;11895;48.738;9.320;2022-07-21T01:17:47;99063.00;;;22.00;100.00
23446;BME280;11895;48.738;9.320;2022-07-21T01:20:21;99066.44;;;21.93;100.00
23446;BME280;11895;48.738;9.320;2022-07-21T01:22:54;99075.50;;;22.14;100.00
23446;BME280;11895;48.738;9.320;2022-07-21T01:25:25;99066.88;;;22.28;100.00
23446;BME280;11895;48.738;9.320;2022-07-21T01:27:53;99059.56;;;22.39;100.00
23446;BME280;11895;48.738;9.320;2022-07-21T01:30:20;99068.53;;;22.41;100.00
23446;BME280;11895;48.738;9.320;2022-07-21T01:32:47;99062.47;;;22.47;100.00
23446;BME280;11895;48.738;9.320;2022-07-21T01:35:15;99070.13;;;22.53;100.00
23446;BME280;11895;48.738;9.320;2022-07-21T01:37:46;99066.09;;;22.57;100.00
23446;BME280;11895;48.738;9.320;2022-07-21T01:40:16;99073.34;;;22.58;100.00
23446;BME280;11895;48.738;9.320;2022-07-21T01:43:04;99090.09;;;22.65;100.00
23446;BME280;11895;48.738;9.320;2022-07-21T01:45:40;99089.16;;;22.35;100.00
23446;BME280;11895;48.738;9.320;2022-07-21T01:48:08;99101.06;;;22.55;100.00
23446;BME280;11895;48.738;9.320;2022-07-21T01:50:37;99117.81;;;22.52;100.00
23446;BME280;11895;48.738;9.320;2022-07-21T01:53:04;99114.06;;;22.63;100.00
23446;BME280;11895;48.738;9.320;2022-07-21T01:55:32;99112.34;;;22.62;100.00
23446;BME280;11895;48.738;9.320;2022-07-21T01:58:01;99119.44;;;22.64;100.00
23446;BME280;11895;48.738;9.320;2022-07-21T02:00:29;99124.47;;;22.49;100.00
23446;BME280;11895;48.738;9.320;2022-07-21T02:02:56;99115.25;;;22.60;100.00
23446;BME280;11895;48.738;9.320;2022-07-21T02:05:23;99126.41;;;22.68;100.00
23446;BME280;11895;48.738;9.320;2022-07-21T02:07:51;99128.56;;;22.74;100.00
23446;BME280;11895;48.738;9.320;2022-07-21T02:10:18;99124.25;;;22.31;100.00
23446;BME280;11895;48.738;9.320;2022-07-21T02:12:46;99128.78;;;21.91;100.00
23446;BME280;11895;48.738;9.320;2022-07-21T02:15:13;99117.34;;;21.65;100.00
23446;BME280;11895;48.738;9.320;2022-07-21T02:17:40;99110.00;;;21.65;100.00
23446;BME280;11895;48.738;9.320;2022-07-21T02:20:08;99108.56;;;21.71;100.00
23446;BME280;11895;48.738;9.320;2022-07-21T02:22:36;99118.06;;;21.46;100.00
23446;BME280;11895;48.738;9.320;2022-07-21T02:25:03;99132.25;;;20.87;100.00
23446;BME280;11895;48.738;9.320;2022-07-21T02:27:31;99140.00;;;20.70;100.00
23446;BME280;11895;48.738;9.320;2022-07-21T02:29:58;99124.72;;;20.45;100.00
23446;BME280;11895;48.738;9.320;2022-07-21T02:32:25;99125.69;;;20.44;100.00
23446;BME280;11895;48.738;9.320;2022-07-21T02:34:53;99130.78;;;20.71;100.00
23446;BME280;11895;48.738;9.320;2022-07-21T02:37:20;99144.22;;;20.74;100.00
23446;BME280;11895;48.738;9.320;2022-07-21T02:39:47;99141.97;;;20.79;100.00
23446;BME280;11895;48.738;9.320;2022-07-21T02:42:15;99130.03;;;20.69;100.00
23446;BME280;11895;48.738;9.320;2022-07-21T02:44:42;99126.00;;;20.96;100.00
23446;BME280;11895;48.738;9.320;2022-07-21T02:47:09;99134.44;;;21.04;100.00
23446;BME280;11895;48.738;9.320;2022-07-21T02:49:37;99132.00;;;20.90;100.00
23446;BME280;11895;48.738;9.320;2022-07-21T02:52:05;99122.63;;;20.92;100.00
23446;BME280;11895;48.738;9.320;2022-07-21T02:54:33;99125.47;;;21.02;100.00
23446;BME280;11895;48.738;9.320;2022-07-21T02:57:01;99121.31;;;21.19;100.00
23446;BME280;11895;48.738;9.320;2022-07-21T02:59:28;99124.34;;;21.04;100.00
23446;BME280;11895;48.738;9.320;2022-07-21T03:01:55;99123.56;;;21.14;100.00
23446;BME280;11895;48.738;9.320;2022-07-21T03:04:23;99139.06;;;21.36;100.00
23446;BME280;11895;48.738;9.320;2022-07-21T03:06:51;99130.19;;;21.43;100.00
23446;BME280;11895;48.738;9.320;2022-07-21T03:09:18;99137.75;;;20.75;100.00
23446;BME280;11895;48.738;9.320;2022-07-21T03:11:45;99132.19;;;21.09;100.00
23446;BME280;11895;48.738;9.320;2022-07-21T03:14:13;99132.84;;;21.22;100.00
23446;BME280;11895;48.738;9.320;2022-07-21T03:16:40;99129.88;;;21.25;100.00
23446;BME280;11895;48.738;9.320;2022-07-21T03:19:07;99131.72;;;21.25;100.00
23446;BME280;11895;48.738;9.320;2022-07-21T03:21:39;99125.66;;;21.33;100.00
23446;BME280;11895;48.738;9.320;2022-07-21T03:24:07;99137.06;;;21.38;100.00
23446;BME280;11895;48.738;9.320;2022-07-21T03:26:34;99142.09;;;21.33;100.00
23446;BME280;11895;48.738;9.320;2022-07-21T03:29:05;99141.31;;;21.30;100.00
23446;BME280;11895;48.738;9.320;2022-07-21T03:31:32;99136.78;;;21.09;100.00
23446;BME280;11895;48.738;9.320;2022-07-21T03:34:00;99148.22;;;21.14;100.00
23446;BME280;11895;48.738;9.320;2022-07-21T03:36:27;99140.28;;;21.43;100.00
23446;BME280;11895;48.738;9.320;2022-07-21T03:38:55;99152.44;;;21.50;100.00
23446;BME280;11895;48.738;9.320;2022-07-21T03:45:07;99146.44;;;21.56;100.00
23446;BME280;11895;48.738;9.320;2022-07-21T03:47:35;99153.13;;;21.63;100.00
23446;BME280;11895;48.738;9.320;2022-07-21T03:53:47;99143.97;;;21.53;100.00
23446;BME280;11895;48.738;9.320;2022-07-21T03:56:14;99151.31;;;21.73;100.00
23446;BME280;11895;48.738;9.320;2022-07-21T04:02:24;99176.56;;;21.56;100.00
23446;BME280;11895;48.738;9.320;2022-07-21T04:08:37;99182.41;;;21.84;100.00
23446;BME280;11895;48.738;9.320;2022-07-21T04:11:05;99179.28;;;21.88;100.00
23446;BME280;11895;48.738;9.320;2022-07-21T04:20:58;99195.47;;;21.91;100.00
23446;BME280;11895;48.738;9.320;2022-07-21T04:23:25;99199.41;;;21.98;100.00
23446;BME280;11895;48.738;9.320;2022-07-21T04:29:35;99194.31;;;21.94;100.00
23446;BME280;11895;48.738;9.320;2022-07-21T04:40:05;99180.44;;;21.86;100.00
23446;BME280;11895;48.738;9.320;2022-07-21T04:42:34;99192.72;;;21.70;100.00
23446;BME280;11895;48.738;9.320;2022-07-21T04:45:04;99191.66;;;21.83;100.00
23446;BME280;11895;48.738;9.320;2022-07-21T04:47:32;99204.63;;;21.80;100.00
23446;BME280;11895;48.738;9.320;2022-07-21T04:50:00;99200.81;;;21.72;100.00
23446;BME280;11895;48.738;9.320;2022-07-21T04:52:28;99209.44;;;21.67;100.00
23446;BME280;11895;48.738;9.320;2022-07-21T04:54:56;99215.19;;;21.64;100.00
23446;BME280;11895;48.738;9.320;2022-07-21T04:57:23;99213.13;;;21.77;100.00
23446;BME280;11895;48.738;9.320;2022-07-21T04:59:50;99206.22;;;22.04;100.00
23446;BME280;11895;48.738;9.320;2022-07-21T05:02:17;99207.06;;;22.16;97.77
23446;BME280;11895;48.738;9.320;2022-07-21T05:04:45;99205.31;;;22.36;96.77
23446;BME280;11895;48.738;9.320;2022-07-21T05:07:12;99198.81;;;22.37;94.90
23446;BME280;11895;48.738;9.320;2022-07-21T05:09:40;99200.56;;;22.47;94.24
23446;BME280;11895;48.738;9.320;2022-07-21T05:12:07;99194.41;;;22.55;92.94
23446;BME280;11895;48.738;9.320;2022-07-21T05:14:35;99199.06;;;22.64;95.35
23446;BME280;11895;48.738;9.320;2022-07-21T05:17:02;99204.00;;;22.70;93.89
23446;BME280;11895;48.738;9.320;2022-07-21T05:19:30;99208.41;;;22.82;90.46
23446;BME280;11895;48.738;9.320;2022-07-21T05:21:57;99204.63;;;22.83;90.09
23446;BME280;11895;48.738;9.320;2022-07-21T05:24:24;99206.63;;;22.81;86.95
23446;BME280;11895;48.738;9.320;2022-07-21T05:26:51;99202.88;;;22.73;90.43
23446;BME280;11895;48.738;9.320;2022-07-21T05:29:19;99206.91;;;22.69;88.64
23446;BME280;11895;48.738;9.320;2022-07-21T05:31:46;99207.31;;;22.64;88.37
23446;BME280;11895;48.738;9.320;2022-07-21T05:34:13;99210.78;;;22.66;89.52
23446;BME280;11895;48.738;9.320;2022-07-21T05:36:40;99204.00;;;22.70;90.09
23446;BME280;11895;48.738;9.320;2022-07-21T05:39:08;99204.03;;;22.80;91.23
23446;BME280;11895;48.738;9.320;2022-07-21T05:41:35;99202.38;;;22.89;91.80
23446;BME280;11895;48.738;9.320;2022-07-21T05:44:03;99212.22;;;23.01;88.76
23446;BME280;11895;48.738;9.320;2022-07-21T05:46:30;99207.47;;;23.03;91.54
23446;BME280;11895;48.738;9.320;2022-07-21T05:48:58;99219.81;;;23.18;86.53
23446;BME280;11895;48.738;9.320;2022-07-21T05:51:26;99225.31;;;23.38;88.84
23446;BME280;11895;48.738;9.320;2022-07-21T05:53:54;99220.13;;;23.44;88.67
23446;BME280;11895;48.738;9.320;2022-07-21T05:56:21;99229.69;;;23.50;87.15
23446;BME280;11895;48.738;9.320;2022-07-21T05:58:48;99242.56;;;23.59;88.37
23446;BME280;11895;48.738;9.320;2022-07-21T06:01:16;99247.34;;;23.57;85.86
23446;BME280;11895;48.738;9.320;2022-07-21T06:03:49;99250.28;;;23.84;86.92
23446;BME280;11895;48.738;9.320;2022-07-21T06:06:19;99254.34;;;24.00;86.93
23446;BME280;11895;48.738;9.320;2022-07-21T06:08:51;99249.25;;;24.05;86.61
23446;BME280;11895;48.738;9.320;2022-07-21T06:11:20;99255.75;;;24.23;84.50
23446;BME280;11895;48.738;9.320;2022-07-21T06:13:48;99259.84;;;24.00;83.91
23446;BME280;11895;48.738;9.320;2022-07-21T06:16:15;99249.38;;;24.23;84.36
23446;BME280;11895;48.738;9.320;2022-07-21T06:18:43;99253.72;;;24.25;82.07
23446;BME280;11895;48.738;9.320;2022-07-21T06:21:10;99256.59;;;24.33;82.83
23446;BME280;11895;48.738;9.320;2022-07-21T06:23:42;99265.88;;;24.32;81.11
23446;BME280;11895;48.738;9.320;2022-07-21T06:26:10;99260.84;;;24.18;79.26
23446;BME280;11895;48.738;9.320;2022-07-21T06:28:37;99269.13;;;23.99;80.00
23446;BME280;11895;48.738;9.320;2022-07-21T06:31:04;99265.63;;;23.77;79.81
23446;BME280;11895;48.738;9.320;2022-07-21T06:33:32;99265.00;;;24.22;80.56
23446;BME280;11895;48.738;9.320;2022-07-21T06:35:59;99259.03;;;24.56;82.24
23446;BME280;11895;48.738;9.320;2022-07-21T06:38:26;99258.09;;;24.38;78.17
23446;BME280;11895;48.738;9.320;2022-07-21T06:40:54;99256.88;;;23.53;82.62
23446;BME280;11895;48.738;9.320;2022-07-21T06:43:21;99261.56;;;23.81;82.91
23446;BME280;11895;48.738;9.320;2022-07-21T06:45:56;99268.75;;;23.63;81.20
23446;BME280;11895;48.738;9.320;2022-07-21T06:48:24;99274.63;;;23.79;79.12
23446;BME280;11895;48.738;9.320;2022-07-21T06:50:54;99267.66;;;23.75;78.29
23446;BME280;11895;48.738;9.320;2022-07-21T06:53:23;99266.06;;;23.92;78.84
23446;BME280;11895;48.738;9.320;2022-07-21T06:55:51;99272.13;;;24.05;76.05
23446;BME280;11895;48.738;9.320;2022-07-21T06:58:26;99278.94;;;24.40;78.31
23446;BME280;11895;48.738;9.320;2022-07-21T07:00:54;99278.69;;;24.80;79.51
23446;BME280;11895;48.738;9.320;2022-07-21T07:03:24;99280.50;;;24.90;76.30
23446;BME280;11895;48.738;9.320;2022-07-21T07:05:52;99272.25;;;24.90;71.53
23446;BME280;11895;48.738;9.320;2022-07-21T07:08:19;99277.81;;;25.45;71.01
23446;BME280;11895;48.738;9.320;2022-07-21T07:10:47;99269.59;;;25.53;70.22
23446;BME280;11895;48.738;9.320;2022-07-21T07:13:15;99267.16;;;25.77;72.80
23446;BME280;11895;48.738;9.320;2022-07-21T07:16:05;99274.94;;;26.00;69.38
23446;BME280;11895;48.738;9.320;2022-07-21T07:18:33;99272.34;;;26.16;69.29
23446;BME280;11895;48.738;9.320;2022-07-21T07:21:00;99270.97;;;26.20;66.94
23446;BME280;11895;48.738;9.320;2022-07-21T07:23:36;99273.13;;;25.73;68.12
23446;BME280;11895;48.738;9.320;2022-07-21T07:26:03;99272.44;;;25.88;68.71
23446;BME280;11895;48.738;9.320;2022-07-21T07:28:30;99278.28;;;25.85;67.75
23446;BME280;11895;48.738;9.320;2022-07-21T07:30:58;99283.22;;;26.00;70.53
23446;BME280;11895;48.738;9.320;2022-07-21T07:33:25;99286.59;;;26.29;68.08
23446;BME280;11895;48.738;9.320;2022-07-21T07:35:54;99286.63;;;25.94;65.12
23446;BME280;11895;48.738;9.320;2022-07-21T07:38:23;99286.47;;;26.31;64.29
23446;BME280;11895;48.738;9.320;2022-07-21T07:40:51;99289.03;;;26.32;62.37
23446;BME280;11895;48.738;9.320;2022-07-21T07:43:18;99293.81;;;26.22;61.82
23446;BME280;11895;48.738;9.320;2022-07-21T07:45:45;99286.75;;;25.74;61.04
23446;BME280;11895;48.738;9.320;2022-07-21T07:48:13;99280.34;;;25.83;60.82
23446;BME280;11895;48.738;9.320;2022-07-21T07:50:40;99285.78;;;25.93;60.51
23446;BME280;11895;48.738;9.320;2022-07-21T07:53:07;99278.50;;;25.47;60.55
23446;BME280;11895;48.738;9.320;2022-07-21T07:55:35;99285.31;;;25.70;60.26
23446;BME280;11895;48.738;9.320;2022-07-21T07:58:02;99276.59;;;26.10;58.90
23446;BME280;11895;48.738;9.320;2022-07-21T08:00:30;99285.34;;;26.06;58.60
23446;BME280;11895;48.738;9.320;2022-07-21T08:03:18;99276.94;;;26.69;59.29
23446;BME280;11895;48.738;9.320;2022-07-21T08:05:45;99272.59;;;27.01;59.27
23446;BME280;11895;48.738;9.320;2022-07-21T08:08:14;99269.97;;;27.25;55.62
23446;BME280;11895;48.738;9.320;2022-07-21T08:10:43;99272.84;;;27.58;55.55
23446;BME280;11895;48.738;9.320;2022-07-21T08:13:15;99280.22;;;27.91;53.54
23446;BME280;11895;48.738;9.320;2022-07-21T08:15:46;99284.34;;;27.03;53.85
23446;BME280;11895;48.738;9.320;2022-07-21T08:18:14;99275.28;;;27.10;54.38
23446;BME280;11895;48.738;9.320;2022-07-21T08:20:44;99271.50;;;27.20;52.71
23446;BME280;11895;48.738;9.320;2022-07-21T08:23:14;99274.63;;;27.75;54.04
23446;BME280;11895;48.738;9.320;2022-07-21T08:25:43;99276.41;;;27.92;51.48
23446;BME280;11895;48.738;9.320;2022-07-21T08:28:11;99286.13;;;28.05;50.33
23446;BME280;11895;48.738;9.320;2022-07-21T08:30:39;99283.22;;;28.39;51.02
23446;BME280;11895;48.738;9.320;2022-07-21T08:33:07;99282.09;;;28.81;51.01
23446;BME280;11895;48.738;9.320;2022-07-21T08:35:35;99274.97;;;29.03;48.74
23446;BME280;11895;48.738;9.320;2022-07-21T08:38:05;99280.72;;;29.01;47.78
23446;BME280;11895;48.738;9.320;2022-07-21T08:40:42;99272.06;;;28.80;47.77
23446;BME280;11895;48.738;9.320;2022-07-21T08:43:12;99274.66;;;28.81;48.18
23446;BME280;11895;48.738;9.320;2022-07-21T08:45:42;99273.84;;;28.64;48.44
23446;BME280;11895;48.738;9.320;2022-07-21T08:48:10;99270.19;;;27.99;47.58
23446;BME280;11895;48.738;9.320;2022-07-21T08:50:39;99275.72;;;28.31;48.72
23446;BME280;11895;48.738;9.320;2022-07-21T08:53:07;99283.31;;;27.30;49.43
23446;BME280;11895;48.738;9.320;2022-07-21T08:55:37;99268.94;;;27.26;49.99
23446;BME280;11895;48.738;9.320;2022-07-21T08:58:10;99265.66;;;27.73;49.51
23446;BME280;11895;48.738;9.320;2022-07-21T09:00:46;99265.63;;;27.14;47.70
23446;BME280;11895;48.738;9.320;2022-07-21T09:03:24;99266.19;;;27.93;49.23
23446;BME280;11895;48.738;9.320;2022-07-21T09:06:14;99256.50;;;28.62;47.89
23446;BME280;11895;48.738;9.320;2022-07-21T09:08:49;99263.09;;;29.25;46.29
23446;BME280;11895;48.738;9.320;2022-07-21T09:11:22;99265.09;;;29.39;46.73
23446;BME280;11895;48.738;9.320;2022-07-21T09:14:09;99260.16;;;29.27;44.56
23446;BME280;11895;48.738;9.320;2022-07-21T09:16:44;99256.69;;;28.04;46.15
23446;BME280;11895;48.738;9.320;2022-07-21T09:19:34;99256.19;;;28.49;45.62
23446;BME280;11895;48.738;9.320;2022-07-21T09:22:12;99254.88;;;27.70;46.16
23446;BME280;11895;48.738;9.320;2022-07-21T09:24:48;99259.44;;;28.28;45.80
23446;BME280;11895;48.738;9.320;2022-07-21T09:27:23;99262.97;;;28.38;43.02
23446;BME280;11895;48.738;9.320;2022-07-21T09:29:57;99260.03;;;27.49;44.69
23446;BME280;11895;48.738;9.320;2022-07-21T09:32:33;99266.25;;;27.51;44.53
23446;BME280;11895;48.738;9.320;2022-07-21T09:35:10;99269.00;;;27.42;45.06
23446;BME280;11895;48.738;9.320;2022-07-21T09:37:41;99267.66;;;27.47;44.08
23446;BME280;11895;48.738;9.320;2022-07-21T09:40:14;99262.25;;;27.45;44.71
23446;BME280;11895;48.738;9.320;2022-07-21T09:42:51;99265.69;;;27.81;44.88
23446;BME280;11895;48.738;9.320;2022-07-21T09:45:20;99256.34;;;28.23;44.66
23446;BME280;11895;48.738;9.320;2022-07-21T09:47:47;99243.72;;;28.12;45.50
23446;BME280;11895;48.738;9.320;2022-07-21T09:50:16;99257.72;;;27.95;45.18
23446;BME280;11895;48.738;9.320;2022-07-21T09:52:56;99254.63;;;28.55;44.64
23446;BME280;11895;48.738;9.320;2022-07-21T09:55:29;99257.34;;;28.79;43.36
23446;BME280;11895;48.738;9.320;2022-07-21T09:57:59;99248.72;;;27.92;42.88
23446;BME280;11895;48.738;9.320;2022-07-21T10:00:28;99259.81;;;28.17;42.03
23446;BME280;11895;48.738;9.320;2022-07-21T10:02:56;99250.72;;;27.58;43.03
23446;BME280;11895;48.738;9.320;2022-07-21T10:05:24;99252.75;;;27.56;43.02
23446;BME280;11895;48.738;9.320;2022-07-21T10:08:02;99248.38;;;28.12;43.29
23446;BME280;11895;48.738;9.320;2022-07-21T10:10:33;99261.88;;;28.07;43.28
23446;BME280;11895;48.738;9.320;2022-07-21T10:13:20;99250.81;;;28.56;41.81
23446;BME280;11895;48.738;9.320;2022-07-21T10:15:48;99244.06;;;28.58;42.87
23446;BME280;11895;48.738;9.320;2022-07-21T10:18:19;99253.75;;;28.22;42.29
23446;BME280;11895;48.738;9.320;2022-07-21T10:21:18;99251.50;;;28.25;42.73
23446;BME280;11895;48.738;9.320;2022-07-21T10:23:46;99245.56;;;29.25;41.73
23446;BME280;11895;48.738;9.320;2022-07-21T10:26:19;99239.84;;;29.65;40.78
23446;BME280;11895;48.738;9.320;2022-07-21T10:28:47;99234.19;;;29.51;42.55
23446;BME280;11895;48.738;9.320;2022-07-21T10:31:19;99233.88;;;30.00;38.94
23446;BME280;11895;48.738;9.320;2022-07-21T10:41:53;99213.13;;;29.87;39.25
23446;BME280;11895;48.738;9.320;2022-07-21T10:49:51;99220.75;;;29.93;40.22
23446;BME280;11895;48.738;9.320;2022-07-21T10:55:19;99213.38;;;29.78;39.64
23446;BME280;11895;48.738;9.320;2022-07-21T10:58:12;99205.63;;;30.19;39.66
23446;BME280;11895;48.738;9.320;2022-07-21T11:04:07;99211.38;;;28.85;39.75
23446;BME280;11895;48.738;9.320;2022-07-21T11:06:44;99210.94;;;29.52;39.38
23446;BME280;11895;48.738;9.320;2022-07-21T11:09:14;99209.38;;;29.49;38.30
23446;BME280;11895;48.738;9.320;2022-07-21T11:14:18;99204.16;;;29.54;40.01
23446;BME280;11895;48.738;9.320;2022-07-21T11:22:02;99201.19;;;29.25;38.12
23446;BME280;11895;48.738;9.320;2022-07-21T11:24:33;99194.19;;;29.37;38.97
23446;BME280;11895;48.738;9.320;2022-07-21T11:29:37;99187.84;;;29.20;38.29
23446;BME280;11895;48.738;9.320;2022-07-21T11:32:07;99191.69;;;30.57;37.25
23446;BME280;11895;48.738;9.320;2022-07-21T11:34:51;99176.34;;;30.08;36.17
23446;BME280;11895;48.738;9.320;2022-07-21T11:37:44;99168.34;;;31.32;35.32
23446;BME280;11895;48.738;9.320;2022-07-21T11:40:18;99167.53;;;31.02;35.08
23446;BME280;11895;48.738;9.320;2022-07-21T11:42:50;99172.03;;;31.03;34.90
23446;BME280;11895;48.738;9.320;2022-07-21T11:45:24;99167.00;;;31.64;34.79
23446;BME280;11895;48.738;9.320;2022-07-21T11:47:55;99164.47;;;32.61;33.67
23446;BME280;11895;48.738;9.320;2022-07-21T11:50:23;99165.38;;;33.64;31.84
23446;BME280;11895;48.738;9.320;2022-07-21T11:52:52;99174.84;;;33.63;30.55
23446;BME280;11895;48.738;9.320;2022-07-21T11:55:21;99164.75;;;33.08;32.02
23446;BME280;11895;48.738;9.320;2022-07-21T11:57:48;99159.81;;;33.10;32.08
23446;BME280;11895;48.738;9.320;2022-07-21T12:00:19;99162.59;;;33.51;32.03
23446;BME280;11895;48.738;9.320;2022-07-21T12:02:49;99163.94;;;33.20;33.69
23446;BME280;11895;48.738;9.320;2022-07-21T12:05:17;99161.91;;;33.56;33.38
23446;BME280;11895;48.738;9.320;2022-07-21T12:07:50;99164.53;;;33.64;33.44
23446;BME280;11895;48.738;9.320;2022-07-21T12:10:24;99159.38;;;33.67;34.32
23446;BME280;11895;48.738;9.320;2022-07-21T12:13:02;99153.31;;;33.50;35.02
23446;BME280;11895;48.738;9.320;2022-07-21T12:15:33;99160.34;;;33.40;35.30
23446;BME280;11895;48.738;9.320;2022-07-21T12:18:07;99149.34;;;33.25;34.75
23446;BME280;11895;48.738;9.320;2022-07-21T12:20:46;99146.88;;;33.43;34.92
23446;BME280;11895;48.738;9.320;2022-07-21T12:23:30;99153.75;;;33.47;35.07
23446;BME280;11895;48.738;9.320;2022-07-21T12:26:00;99149.50;;;33.78;34.48
23446;BME280;11895;48.738;9.320;2022-07-21T12:28:50;99146.47;;;33.46;34.50
23446;BME280;11895;48.738;9.320;2022-07-21T12:31:25;99156.81;;;33.79;33.83
23446;BME280;11895;48.738;9.320;2022-07-21T12:33:55;99152.53;;;33.83;33.56
23446;BME280;11895;48.738;9.320;2022-07-21T12:36:44;99151.38;;;33.44;33.09
23446;BME280;11895;48.738;9.320;2022-07-21T12:39:25;99146.06;;;33.76;34.16
23446;BME280;11895;48.738;9.320;2022-07-21T12:45:20;99153.38;;;34.70;31.58
23446;BME280;11895;48.738;9.320;2022-07-21T12:48:06;99142.00;;;34.51;32.79
23446;BME280;11895;48.738;9.320;2022-07-21T12:50:35;99142.59;;;34.80;32.22
23446;BME280;11895;48.738;9.320;2022-07-21T12:53:09;99146.66;;;36.62;29.32
23446;BME280;11895;48.738;9.320;2022-07-21T12:55:38;99144.28;;;37.39;28.25
23446;BME280;11895;48.738;9.320;2022-07-21T12:58:06;99143.44;;;38.11;26.84
23446;BME280;11895;48.738;9.320;2022-07-21T13:00:34;99143.16;;;38.00;27.17
23446;BME280;11895;48.738;9.320;2022-07-21T13:03:04;99142.00;;;37.29;27.76
23446;BME280;11895;48.738;9.320;2022-07-21T13:05:32;99150.50;;;36.68;28.03
23446;BME280;11895;48.738;9.320;2022-07-21T13:08:00;99156.66;;;36.08;28.91
23446;BME280;11895;48.738;9.320;2022-07-21T13:10:27;99156.22;;;35.35;30.95
23446;BME280;11895;48.738;9.320;2022-07-21T13:12:56;99147.28;;;34.99;31.23
23446;BME280;11895;48.738;9.320;2022-07-21T13:15:24;99151.34;;;36.68;29.01
23446;BME280;11895;48.738;9.320;2022-07-21T13:17:52;99145.34;;;36.65;29.17
23446;BME280;11895;48.738;9.320;2022-07-21T13:20:20;99148.97;;;35.90;30.42
23446;BME280;11895;48.738;9.320;2022-07-21T13:22:47;99148.56;;;35.03;30.32
23446;BME280;11895;48.738;9.320;2022-07-21T13:25:15;99149.25;;;34.92;31.17
23446;BME280;11895;48.738;9.320;2022-07-21T13:27:43;99143.22;;;35.47;31.25
23446;BME280;11895;48.738;9.320;2022-07-21T13:30:15;99144.09;;;36.11;29.38
23446;BME280;11895;48.738;9.320;2022-07-21T13:32:44;99142.47;;;37.26;28.63
23446;BME280;11895;48.738;9.320;2022-07-21T13:35:12;99140.88;;;37.79;27.18
23446;BME280;11895;48.738;9.320;2022-07-21T13:37:57;99137.94;;;37.74;27.50
23446;BME280;11895;48.738;9.320;2022-07-21T13:40:27;99136.94;;;37.20;27.46
23446;BME280;11895;48.738;9.320;2022-07-21T13:43:15;99132.34;;;36.70;29.81
23446;BME280;11895;48.738;9.320;2022-07-21T13:46:03;99127.09;;;36.30;29.62
23446;BME280;11895;48.738;9.320;2022-07-21T13:48:32;99131.06;;;37.70;28.12
23446;BME280;11895;48.738;9.320;2022-07-21T13:51:16;99127.47;;;39.62;25.06
23446;BME280;11895;48.738;9.320;2022-07-21T13:53:48;99128.97;;;39.53;24.80
23446;BME280;11895;48.738;9.320;2022-07-21T13:56:19;99126.00;;;39.31;25.37
23446;BME280;11895;48.738;9.320;2022-07-21T13:58:47;99126.50;;;38.41;26.66
23446;BME280;11895;48.738;9.320;2022-07-21T14:01:15;99136.31;;;38.20;27.09
23446;BME280;11895;48.738;9.320;2022-07-21T14:03:44;99127.41;;;37.39;27.86
23446;BME280;11895;48.738;9.320;2022-07-21T14:06:14;99123.72;;;36.90;28.67
23446;BME280;11895;48.738;9.320;2022-07-21T14:08:43;99121.31;;;36.50;28.86
23446;BME280;11895;48.738;9.320;2022-07-21T14:11:11;99123.72;;;35.65;30.01
23446;BME280;11895;48.738;9.320;2022-07-21T14:13:42;99123.81;;;35.52;30.28
23446;BME280;11895;48.738;9.320;2022-07-21T14:16:11;99126.50;;;35.27;31.21
23446;BME280;11895;48.738;9.320;2022-07-21T14:18:39;99125.34;;;35.41;30.66
23446;BME280;11895;48.738;9.320;2022-07-21T14:21:08;99126.81;;;38.21;27.07